sensor_id;sensor_type;location;lat;lon;timestamp;pressure;altitude;pressure_sealevel;temperature;humidity
26376;BME280;30544;42.196;24.336;2022-07-10T00:02:16;98803.25;;;20.63;64.63
26376;BME280;30544;42.196;24.336;2022-07-10T00:04:44;98809.09;;;20.67;64.54
26376;BME280;30544;42.196;24.336;2022-07-10T00:07:11;98798.66;;;20.67;64.20
26376;BME280;30544;42.196;24.336;2022-07-10T00:09:39;98782.84;;;20.58;64.57
26376;BME280;30544;42.196;24.336;2022-07-10T00:12:06;98804.03;;;20.55;64.31
26376;BME280;30544;42.196;24.336;2022-07-10T00:14:33;98807.50;;;20.52;64.00
26376;BME280;30544;42.196;24.336;2022-07-10T00:17:00;98787.31;;;20.59;64.21
26376;BME280;30544;42.196;24.336;2022-07-10T00:19:27;98802.53;;;20.49;64.53
26376;BME280;30544;42.196;24.336;2022-07-10T00:21:54;98795.75;;;20.50;64.33
26376;BME280;30544;42.196;24.336;2022-07-10T00:24:21;98794.38;;;20.48;64.17
26376;BME280;30544;42.196;24.336;2022-07-10T00:26:50;98801.38;;;20.50;64.34
26376;BME280;30544;42.196;24.336;2022-07-10T00:29:16;98797.91;;;20.53;64.25
26376;BME280;30544;42.196;24.336;2022-07-10T00:31:43;98790.72;;;20.47;64.21
26376;BME280;30544;42.196;24.336;2022-07-10T00:34:10;98787.41;;;20.45;64.49
26376;BME280;30544;42.196;24.336;2022-07-10T00:36:38;98780.50;;;20.51;64.82
26376;BME280;30544;42.196;24.336;2022-07-10T00:39:05;98776.72;;;20.33;65.52
26376;BME280;30544;42.196;24.336;2022-07-10T00:41:31;98787.53;;;20.40;64.79
26376;BME280;30544;42.196;24.336;2022-07-10T00:44:01;98784.03;;;20.34;65.27
26376;BME280;30544;42.196;24.336;2022-07-10T00:46:30;98779.63;;;20.42;64.94
26376;BME280;30544;42.196;24.336;2022-07-10T00:48:57;98766.88;;;20.22;65.64
26376;BME280;30544;42.196;24.336;2022-07-10T00:51:26;98760.25;;;20.18;66.26
26376;BME280;30544;42.196;24.336;2022-07-10T00:53:55;98770.16;;;20.16;65.92
26376;BME280;30544;42.196;24.336;2022-07-10T00:56:24;98769.56;;;20.27;65.79
26376;BME280;30544;42.196;24.336;2022-07-10T00:58:52;98759.78;;;20.25;66.10
26376;BME280;30544;42.196;24.336;2022-07-10T01:01:20;98759.03;;;20.10;66.15
26376;BME280;30544;42.196;24.336;2022-07-10T01:03:48;98759.63;;;19.99;66.30
26376;BME280;30544;42.196;24.336;2022-07-10T01:06:16;98759.31;;;20.00;66.88
26376;BME280;30544;42.196;24.336;2022-07-10T01:08:44;98757.50;;;20.04;66.45
26376;BME280;30544;42.196;24.336;2022-07-10T01:11:12;98754.72;;;19.82;67.08
26376;BME280;30544;42.196;24.336;2022-07-10T01:13:39;98748.53;;;19.80;67.34
26376;BME280;30544;42.196;24.336;2022-07-10T01:16:06;98747.84;;;19.74;67.41
26376;BME280;30544;42.196;24.336;2022-07-10T01:18:34;98746.06;;;19.78;66.65
26376;BME280;30544;42.196;24.336;2022-07-10T01:21:03;98735.88;;;19.91;66.55
26376;BME280;30544;42.196;24.336;2022-07-10T01:23:30;98744.78;;;19.85;66.99
26376;BME280;30544;42.196;24.336;2022-07-10T01:25:57;98738.34;;;19.84;66.50
26376;BME280;30544;42.196;24.336;2022-07-10T01:28:26;98747.38;;;19.81;66.91
26376;BME280;30544;42.196;24.336;2022-07-10T01:30:54;98743.25;;;19.78;66.37
26376;BME280;30544;42.196;24.336;2022-07-10T01:33:22;98732.13;;;19.73;66.93
26376;BME280;30544;42.196;24.336;2022-07-10T01:35:49;98736.38;;;19.48;67.13
26376;BME280;30544;42.196;24.336;2022-07-10T01:38:18;98731.44;;;19.32;67.37
26376;BME280;30544;42.196;24.336;2022-07-10T01:40:44;98736.47;;;19.43;67.07
26376;BME280;30544;42.196;24.336;2022-07-10T01:43:11;98722.53;;;19.38;67.19
26376;BME280;30544;42.196;24.336;2022-07-10T01:45:38;98732.66;;;19.39;67.31
26376;BME280;30544;42.196;24.336;2022-07-10T01:48:05;98735.78;;;19.38;67.14
26376;BME280;30544;42.196;24.336;2022-07-10T01:50:32;98730.19;;;19.24;67.70
26376;BME280;30544;42.196;24.336;2022-07-10T01:52:59;98732.47;;;19.22;67.95
26376;BME280;30544;42.196;24.336;2022-07-10T01:55:28;98733.13;;;19.19;68.29
26376;BME280;30544;42.196;24.336;2022-07-10T01:57:55;98739.75;;;19.23;67.99
26376;BME280;30544;42.196;24.336;2022-07-10T02:00:22;98733.34;;;18.95;68.78
26376;BME280;30544;42.196;24.336;2022-07-10T02:02:49;98732.69;;;19.12;68.42
26376;BME280;30544;42.196;24.336;2022-07-10T02:05:30;98732.69;;;19.12;68.19
26376;BME280;30544;42.196;24.336;2022-07-10T02:07:57;98729.41;;;18.96;69.12
26376;BME280;30544;42.196;24.336;2022-07-10T02:10:25;98735.34;;;18.94;68.95
26376;BME280;30544;42.196;24.336;2022-07-10T02:12:53;98720.03;;;19.01;68.82
26376;BME280;30544;42.196;24.336;2022-07-10T02:15:21;98711.94;;;18.99;68.89
26376;BME280;30544;42.196;24.336;2022-07-10T02:17:49;98728.13;;;19.16;68.38
26376;BME280;30544;42.196;24.336;2022-07-10T02:20:15;98720.56;;;19.03;68.27
26376;BME280;30544;42.196;24.336;2022-07-10T02:22:42;98723.38;;;19.03;68.73
26376;BME280;30544;42.196;24.336;2022-07-10T02:25:09;98727.41;;;19.10;68.83
26376;BME280;30544;42.196;24.336;2022-07-10T02:27:36;98732.59;;;19.17;68.52
26376;BME280;30544;42.196;24.336;2022-07-10T02:30:06;98728.16;;;19.02;68.74
26376;BME280;30544;42.196;24.336;2022-07-10T02:32:33;98727.31;;;19.15;68.38
26376;BME280;30544;42.196;24.336;2022-07-10T02:35:00;98720.91;;;19.23;68.28
26376;BME280;30544;42.196;24.336;2022-07-10T02:37:27;98727.59;;;19.14;68.44
26376;BME280;30544;42.196;24.336;2022-07-10T02:39:54;98731.28;;;19.01;68.74
26376;BME280;30544;42.196;24.336;2022-07-10T02:42:21;98721.38;;;19.17;68.04
26376;BME280;30544;42.196;24.336;2022-07-10T02:44:48;98725.75;;;19.09;68.61
26376;BME280;30544;42.196;24.336;2022-07-10T02:47:16;98724.38;;;19.20;68.74
26376;BME280;30544;42.196;24.336;2022-07-10T02:49:43;98726.38;;;19.06;68.66
26376;BME280;30544;42.196;24.336;2022-07-10T02:52:10;98723.66;;;19.15;68.51
26376;BME280;30544;42.196;24.336;2022-07-10T02:54:37;98720.25;;;19.04;68.97
26376;BME280;30544;42.196;24.336;2022-07-10T02:57:05;98723.75;;;19.10;68.59
26376;BME280;30544;42.196;24.336;2022-07-10T02:59:31;98724.41;;;19.07;68.74
26376;BME280;30544;42.196;24.336;2022-07-10T03:01:58;98731.47;;;19.18;68.59
26376;BME280;30544;42.196;24.336;2022-07-10T03:04:27;98736.66;;;19.11;69.36
26376;BME280;30544;42.196;24.336;2022-07-10T03:06:57;98732.19;;;19.10;69.05
26376;BME280;30544;42.196;24.336;2022-07-10T03:09:24;98724.41;;;19.07;69.27
26376;BME280;30544;42.196;24.336;2022-07-10T03:11:51;98740.63;;;19.10;69.37
26376;BME280;30544;42.196;24.336;2022-07-10T03:14:18;98733.53;;;19.12;68.97
26376;BME280;30544;42.196;24.336;2022-07-10T03:16:45;98744.47;;;19.14;68.83
26376;BME280;30544;42.196;24.336;2022-07-10T03:19:12;98744.38;;;19.05;69.24
26376;BME280;30544;42.196;24.336;2022-07-10T03:21:40;98739.97;;;19.13;68.92
26376;BME280;30544;42.196;24.336;2022-07-10T03:24:07;98730.41;;;19.14;69.12
26376;BME280;30544;42.196;24.336;2022-07-10T03:26:34;98739.78;;;19.09;69.11
26376;BME280;30544;42.196;24.336;2022-07-10T03:29:01;98747.06;;;19.10;68.95
26376;BME280;30544;42.196;24.336;2022-07-10T03:31:28;98742.09;;;19.07;69.25
26376;BME280;30544;42.196;24.336;2022-07-10T03:33:54;98745.81;;;19.16;69.34
26376;BME280;30544;42.196;24.336;2022-07-10T03:36:21;98747.69;;;19.21;68.73
26376;BME280;30544;42.196;24.336;2022-07-10T03:38:50;98750.97;;;19.01;69.75
26376;BME280;30544;42.196;24.336;2022-07-10T03:41:16;98739.38;;;19.16;69.21
26376;BME280;30544;42.196;24.336;2022-07-10T03:43:43;98734.16;;;19.23;69.12
26376;BME280;30544;42.196;24.336;2022-07-10T03:46:10;98737.06;;;19.32;69.15
26376;BME280;30544;42.196;24.336;2022-07-10T03:48:37;98742.22;;;19.38;68.81
26376;BME280;30544;42.196;24.336;2022-07-10T03:51:04;98739.91;;;19.76;68.36
26376;BME280;30544;42.196;24.336;2022-07-10T03:53:31;98720.94;;;20.35;66.07
26376;BME280;30544;42.196;24.336;2022-07-10T03:55:59;98729.22;;;20.71;64.64
26376;BME280;30544;42.196;24.336;2022-07-10T03:58:26;98719.00;;;20.93;63.68
26376;BME280;30544;42.196;24.336;2022-07-10T04:00:52;98736.69;;;21.24;63.35
26376;BME280;30544;42.196;24.336;2022-07-10T04:03:19;98733.72;;;21.38;62.41
26376;BME280;30544;42.196;24.336;2022-07-10T04:05:46;98725.72;;;21.49;61.88
26376;BME280;30544;42.196;24.336;2022-07-10T04:08:13;98723.44;;;21.51;62.26
26376;BME280;30544;42.196;24.336;2022-07-10T04:10:40;98728.53;;;21.83;60.53
26376;BME280;30544;42.196;24.336;2022-07-10T04:13:08;98732.69;;;21.95;60.64
26376;BME280;30544;42.196;24.336;2022-07-10T04:15:35;98722.72;;;21.97;60.24
26376;BME280;30544;42.196;24.336;2022-07-10T04:18:02;98726.72;;;22.05;59.88
26376;BME280;30544;42.196;24.336;2022-07-10T04:20:28;98730.19;;;22.10;60.39
26376;BME280;30544;42.196;24.336;2022-07-10T04:22:56;98722.38;;;22.16;59.88
26376;BME280;30544;42.196;24.336;2022-07-10T04:25:23;98726.38;;;21.98;61.34
26376;BME280;30544;42.196;24.336;2022-07-10T04:27:50;98733.84;;;22.02;60.50
26376;BME280;30544;42.196;24.336;2022-07-10T04:30:19;98714.25;;;22.14;60.19
26376;BME280;30544;42.196;24.336;2022-07-10T04:32:46;98723.75;;;22.57;59.50
26376;BME280;30544;42.196;24.336;2022-07-10T04:35:12;98727.03;;;22.12;60.99
26376;BME280;30544;42.196;24.336;2022-07-10T04:37:39;98721.81;;;22.40;60.45
26376;BME280;30544;42.196;24.336;2022-07-10T04:40:07;98722.16;;;22.85;58.72
26376;BME280;30544;42.196;24.336;2022-07-10T04:42:35;98720.47;;;22.46;59.87
26376;BME280;30544;42.196;24.336;2022-07-10T04:45:03;98723.13;;;22.42;60.09
26376;BME280;30544;42.196;24.336;2022-07-10T04:47:31;98713.59;;;22.09;59.89
26376;BME280;30544;42.196;24.336;2022-07-10T04:49:58;98723.44;;;22.49;59.80
26376;BME280;30544;42.196;24.336;2022-07-10T04:52:24;98723.94;;;22.51;60.04
26376;BME280;30544;42.196;24.336;2022-07-10T04:54:51;98723.56;;;22.62;59.15
26376;BME280;30544;42.196;24.336;2022-07-10T04:57:18;98727.06;;;23.26;57.70
26376;BME280;30544;42.196;24.336;2022-07-10T04:59:45;98726.38;;;22.62;58.46
26376;BME280;30544;42.196;24.336;2022-07-10T05:02:12;98724.97;;;22.76;58.86
26376;BME280;30544;42.196;24.336;2022-07-10T05:04:40;98715.88;;;23.30;56.66
26376;BME280;30544;42.196;24.336;2022-07-10T05:07:07;98714.84;;;23.55;56.08
26376;BME280;30544;42.196;24.336;2022-07-10T05:09:34;98718.28;;;22.51;58.56
26376;BME280;30544;42.196;24.336;2022-07-10T05:12:00;98726.72;;;22.98;57.91
26376;BME280;30544;42.196;24.336;2022-07-10T05:14:27;98721.81;;;22.78;57.20
26376;BME280;30544;42.196;24.336;2022-07-10T05:16:54;98705.25;;;23.06;57.19
26376;BME280;30544;42.196;24.336;2022-07-10T05:19:21;98722.16;;;22.85;58.03
26376;BME280;30544;42.196;24.336;2022-07-10T05:21:49;98714.59;;;22.60;58.80
26376;BME280;30544;42.196;24.336;2022-07-10T05:24:16;98728.19;;;22.66;58.77
26376;BME280;30544;42.196;24.336;2022-07-10T05:26:43;98726.34;;;22.70;58.34
26376;BME280;30544;42.196;24.336;2022-07-10T05:29:10;98714.44;;;22.56;58.58
26376;BME280;30544;42.196;24.336;2022-07-10T05:31:37;98716.16;;;22.78;58.03
26376;BME280;30544;42.196;24.336;2022-07-10T05:34:04;98713.22;;;22.66;58.10
26376;BME280;30544;42.196;24.336;2022-07-10T05:36:31;98702.94;;;22.99;57.59
26376;BME280;30544;42.196;24.336;2022-07-10T05:38:59;98705.50;;;23.13;57.28
26376;BME280;30544;42.196;24.336;2022-07-10T05:41:26;98711.13;;;23.22;57.58
26376;BME280;30544;42.196;24.336;2022-07-10T05:43:53;98708.41;;;23.04;57.83
26376;BME280;30544;42.196;24.336;2022-07-10T05:46:20;98704.88;;;23.07;57.71
26376;BME280;30544;42.196;24.336;2022-07-10T05:48:47;98716.69;;;23.09;57.39
26376;BME280;30544;42.196;24.336;2022-07-10T05:51:14;98718.63;;;23.18;57.37
26376;BME280;30544;42.196;24.336;2022-07-10T05:53:41;98698.41;;;23.07;56.96
26376;BME280;30544;42.196;24.336;2022-07-10T05:56:10;98712.72;;;23.52;56.53
26376;BME280;30544;42.196;24.336;2022-07-10T05:58:36;98714.50;;;23.36;57.05
26376;BME280;30544;42.196;24.336;2022-07-10T06:01:03;98709.69;;;24.11;56.26
26376;BME280;30544;42.196;24.336;2022-07-10T06:03:30;98716.09;;;24.20;55.28
26376;BME280;30544;42.196;24.336;2022-07-10T06:05:58;98706.38;;;24.09;55.84
26376;BME280;30544;42.196;24.336;2022-07-10T06:08:25;98719.25;;;24.40;54.80
26376;BME280;30544;42.196;24.336;2022-07-10T06:10:51;98704.50;;;24.58;54.32
26376;BME280;30544;42.196;24.336;2022-07-10T06:13:20;98697.78;;;24.63;53.51
26376;BME280;30544;42.196;24.336;2022-07-10T06:15:47;98719.09;;;25.06;53.25
26376;BME280;30544;42.196;24.336;2022-07-10T06:18:14;98708.44;;;25.15;53.27
26376;BME280;30544;42.196;24.336;2022-07-10T06:20:41;98718.81;;;24.74;53.25
26376;BME280;30544;42.196;24.336;2022-07-10T06:23:07;98719.06;;;24.94;53.09
26376;BME280;30544;42.196;24.336;2022-07-10T06:25:34;98716.94;;;24.78;52.63
26376;BME280;30544;42.196;24.336;2022-07-10T06:28:01;98714.72;;;25.08;52.70
26376;BME280;30544;42.196;24.336;2022-07-10T06:30:29;98723.78;;;25.26;51.18
26376;BME280;30544;42.196;24.336;2022-07-10T06:32:56;98717.09;;;25.71;50.88
26376;BME280;30544;42.196;24.336;2022-07-10T06:35:23;98716.75;;;25.60;50.85
26376;BME280;30544;42.196;24.336;2022-07-10T06:37:50;98714.72;;;25.73;50.66
26376;BME280;30544;42.196;24.336;2022-07-10T06:40:20;98709.47;;;25.87;49.99
26376;BME280;30544;42.196;24.336;2022-07-10T06:42:47;98705.38;;;25.60;51.23
26376;BME280;30544;42.196;24.336;2022-07-10T06:45:13;98706.84;;;26.54;49.33
26376;BME280;30544;42.196;24.336;2022-07-10T06:47:42;98704.22;;;26.92;48.60
26376;BME280;30544;42.196;24.336;2022-07-10T06:50:25;98717.53;;;26.73;48.08
26376;BME280;30544;42.196;24.336;2022-07-10T06:52:53;98707.78;;;26.14;48.63
26376;BME280;30544;42.196;24.336;2022-07-10T06:55:21;98717.09;;;25.99;49.35
26376;BME280;30544;42.196;24.336;2022-07-10T06:57:49;98712.88;;;25.40;50.53
26376;BME280;30544;42.196;24.336;2022-07-10T07:00:15;98721.16;;;25.45;50.34
26376;BME280;30544;42.196;24.336;2022-07-10T07:02:44;98729.94;;;25.16;49.72
26376;BME280;30544;42.196;24.336;2022-07-10T07:05:11;98714.47;;;25.13;49.35
26376;BME280;30544;42.196;24.336;2022-07-10T07:07:38;98724.00;;;25.86;48.25
26376;BME280;30544;42.196;24.336;2022-07-10T07:10:07;98709.97;;;26.05;49.10
26376;BME280;30544;42.196;24.336;2022-07-10T07:12:34;98715.00;;;25.43;50.16
26376;BME280;30544;42.196;24.336;2022-07-10T07:15:01;98721.97;;;25.70;49.11
26376;BME280;30544;42.196;24.336;2022-07-10T07:17:28;98715.94;;;25.47;48.89
26376;BME280;30544;42.196;24.336;2022-07-10T07:20:03;98710.41;;;26.35;47.73
26376;BME280;30544;42.196;24.336;2022-07-10T07:22:47;98715.38;;;26.54;46.54
26376;BME280;30544;42.196;24.336;2022-07-10T07:25:32;98707.69;;;26.38;46.74
26376;BME280;30544;42.196;24.336;2022-07-10T07:27:58;98700.94;;;25.87;47.83
26376;BME280;30544;42.196;24.336;2022-07-10T07:30:25;98718.00;;;26.31;47.46
26376;BME280;30544;42.196;24.336;2022-07-10T07:32:53;98704.06;;;25.98;47.55
26376;BME280;30544;42.196;24.336;2022-07-10T07:35:21;98700.94;;;26.31;45.98
26376;BME280;30544;42.196;24.336;2022-07-10T07:37:49;98709.00;;;26.29;46.76
26376;BME280;30544;42.196;24.336;2022-07-10T07:40:18;98702.66;;;26.95;45.11
26376;BME280;30544;42.196;24.336;2022-07-10T07:42:46;98704.16;;;26.29;45.08
26376;BME280;30544;42.196;24.336;2022-07-10T07:45:13;98715.06;;;26.27;45.78
26376;BME280;30544;42.196;24.336;2022-07-10T07:47:44;98717.91;;;25.99;45.84
26376;BME280;30544;42.196;24.336;2022-07-10T07:50:12;98708.06;;;25.81;46.60
26376;BME280;30544;42.196;24.336;2022-07-10T07:52:40;98701.00;;;26.19;45.46
26376;BME280;30544;42.196;24.336;2022-07-10T07:55:08;98709.44;;;26.75;44.57
26376;BME280;30544;42.196;24.336;2022-07-10T07:57:35;98707.44;;;27.07;44.44
26376;BME280;30544;42.196;24.336;2022-07-10T08:00:04;98717.03;;;26.71;43.81
26376;BME280;30544;42.196;24.336;2022-07-10T08:02:31;98694.22;;;26.07;45.01
26376;BME280;30544;42.196;24.336;2022-07-10T08:04:58;98712.28;;;26.75;44.19
26376;BME280;30544;42.196;24.336;2022-07-10T08:07:33;98705.47;;;25.76;45.45
26376;BME280;30544;42.196;24.336;2022-07-10T08:10:02;98716.88;;;26.20;45.01
26376;BME280;30544;42.196;24.336;2022-07-10T08:12:29;98711.59;;;25.90;45.36
26376;BME280;30544;42.196;24.336;2022-07-10T08:14:56;98722.09;;;26.77;43.83
26376;BME280;30544;42.196;24.336;2022-07-10T08:17:26;98724.13;;;26.33;44.15
26376;BME280;30544;42.196;24.336;2022-07-10T08:19:53;98722.53;;;26.20;45.03
26376;BME280;30544;42.196;24.336;2022-07-10T08:22:20;98723.47;;;26.67;44.00
26376;BME280;30544;42.196;24.336;2022-07-10T08:24:47;98731.59;;;26.09;44.11
26376;BME280;30544;42.196;24.336;2022-07-10T08:27:15;98724.50;;;26.31;44.64
26376;BME280;30544;42.196;24.336;2022-07-10T08:29:42;98734.03;;;25.95;45.15
26376;BME280;30544;42.196;24.336;2022-07-10T08:32:09;98725.56;;;26.11;45.18
26376;BME280;30544;42.196;24.336;2022-07-10T08:34:36;98730.00;;;25.96;45.05
26376;BME280;30544;42.196;24.336;2022-07-10T08:37:03;98740.53;;;25.96;45.39
26376;BME280;30544;42.196;24.336;2022-07-10T08:39:30;98746.69;;;25.98;45.66
26376;BME280;30544;42.196;24.336;2022-07-10T08:42:00;98745.13;;;25.72;46.04
26376;BME280;30544;42.196;24.336;2022-07-10T08:44:29;98749.38;;;26.06;45.13
26376;BME280;30544;42.196;24.336;2022-07-10T08:46:56;98741.88;;;26.14;45.39
26376;BME280;30544;42.196;24.336;2022-07-10T08:49:26;98736.25;;;26.02;45.81
26376;BME280;30544;42.196;24.336;2022-07-10T08:51:57;98731.00;;;26.60;44.67
26376;BME280;30544;42.196;24.336;2022-07-10T08:54:27;98732.38;;;25.94;46.41
26376;BME280;30544;42.196;24.336;2022-07-10T08:56:56;98734.69;;;26.76;45.73
26376;BME280;30544;42.196;24.336;2022-07-10T08:59:24;98730.94;;;26.72;44.99
26376;BME280;30544;42.196;24.336;2022-07-10T09:01:52;98732.34;;;26.50;44.33
26376;BME280;30544;42.196;24.336;2022-07-10T09:04:20;98738.50;;;26.84;44.15
26376;BME280;30544;42.196;24.336;2022-07-10T09:06:48;98729.91;;;26.96;44.27
26376;BME280;30544;42.196;24.336;2022-07-10T09:09:14;98724.03;;;26.89;42.95
26376;BME280;30544;42.196;24.336;2022-07-10T09:11:42;98725.69;;;27.21;43.21
26376;BME280;30544;42.196;24.336;2022-07-10T09:14:10;98714.03;;;26.95;43.61
26376;BME280;30544;42.196;24.336;2022-07-10T09:16:39;98721.84;;;27.49;42.54
26376;BME280;30544;42.196;24.336;2022-07-10T09:19:18;98713.50;;;27.75;40.34
26376;BME280;30544;42.196;24.336;2022-07-10T09:21:45;98727.06;;;28.01;41.84
26376;BME280;30544;42.196;24.336;2022-07-10T09:24:12;98722.19;;;28.02;40.52
26376;BME280;30544;42.196;24.336;2022-07-10T09:26:40;98716.88;;;28.39;39.50
26376;BME280;30544;42.196;24.336;2022-07-10T09:29:09;98709.88;;;29.54;37.69
26376;BME280;30544;42.196;24.336;2022-07-10T09:31:49;98715.59;;;28.36;39.53
26376;BME280;30544;42.196;24.336;2022-07-10T09:34:19;98726.94;;;28.33;40.08
26376;BME280;30544;42.196;24.336;2022-07-10T09:37:17;98712.66;;;28.75;38.69
26376;BME280;30544;42.196;24.336;2022-07-10T09:39:51;98719.50;;;28.93;37.17
26376;BME280;30544;42.196;24.336;2022-07-10T09:42:28;98704.88;;;29.74;37.40
26376;BME280;30544;42.196;24.336;2022-07-10T09:45:18;98706.22;;;29.04;37.35
26376;BME280;30544;42.196;24.336;2022-07-10T09:47:53;98706.03;;;29.17;37.91
26376;BME280;30544;42.196;24.336;2022-07-10T09:50:28;98709.41;;;28.54;38.22
26376;BME280;30544;42.196;24.336;2022-07-10T09:52:56;98709.75;;;28.94;38.91
26376;BME280;30544;42.196;24.336;2022-07-10T09:55:25;98702.25;;;28.63;37.87
26376;BME280;30544;42.196;24.336;2022-07-10T09:57:54;98704.31;;;29.12;38.80
26376;BME280;30544;42.196;24.336;2022-07-10T10:00:27;98710.34;;;28.61;37.87
26376;BME280;30544;42.196;24.336;2022-07-10T10:02:59;98705.91;;;29.10;38.07
26376;BME280;30544;42.196;24.336;2022-07-10T10:08:24;98682.25;;;29.92;36.75
26376;BME280;30544;42.196;24.336;2022-07-10T10:10:51;98690.53;;;29.44;38.58
26376;BME280;30544;42.196;24.336;2022-07-10T10:13:20;98693.75;;;29.69;37.56
26376;BME280;30544;42.196;24.336;2022-07-10T10:15:48;98695.59;;;29.54;36.84
26376;BME280;30544;42.196;24.336;2022-07-10T10:18:17;98693.94;;;29.53;36.87
26376;BME280;30544;42.196;24.336;2022-07-10T10:20:45;98692.34;;;29.56;36.40
26376;BME280;30544;42.196;24.336;2022-07-10T10:23:13;98692.31;;;29.26;35.96
26376;BME280;30544;42.196;24.336;2022-07-10T10:25:42;98668.38;;;30.28;34.92
26376;BME280;30544;42.196;24.336;2022-07-10T10:28:10;98662.75;;;30.75;33.82
26376;BME280;30544;42.196;24.336;2022-07-10T10:30:38;98677.22;;;30.97;35.74
26376;BME280;30544;42.196;24.336;2022-07-10T10:33:42;98674.78;;;30.17;35.62
26376;BME280;30544;42.196;24.336;2022-07-10T10:36:11;98657.59;;;30.54;33.98
26376;BME280;30544;42.196;24.336;2022-07-10T10:39:01;98659.44;;;31.97;33.67
26376;BME280;30544;42.196;24.336;2022-07-10T10:41:36;98651.13;;;30.58;34.38
26376;BME280;30544;42.196;24.336;2022-07-10T10:47:05;98666.56;;;29.49;36.55
26376;BME280;30544;42.196;24.336;2022-07-10T10:49:51;98667.81;;;28.98;38.30
26376;BME280;30544;42.196;24.336;2022-07-10T10:52:19;98647.50;;;29.56;38.90
26376;BME280;30544;42.196;24.336;2022-07-10T10:55:06;98660.13;;;29.29;38.31
26376;BME280;30544;42.196;24.336;2022-07-10T10:57:42;98648.59;;;29.48;38.15
26376;BME280;30544;42.196;24.336;2022-07-10T11:00:34;98653.88;;;29.20;37.51
26376;BME280;30544;42.196;24.336;2022-07-10T11:03:20;98649.94;;;29.28;37.23
26376;BME280;30544;42.196;24.336;2022-07-10T11:05:48;98634.69;;;28.90;38.32
26376;BME280;30544;42.196;24.336;2022-07-10T11:08:40;98630.25;;;29.49;37.08
26376;BME280;30544;42.196;24.336;2022-07-10T11:11:37;98652.78;;;29.88;37.12
26376;BME280;30544;42.196;24.336;2022-07-10T11:14:08;98641.78;;;29.56;38.01
26376;BME280;30544;42.196;24.336;2022-07-10T11:16:35;98630.06;;;30.02;37.14
26376;BME280;30544;42.196;24.336;2022-07-10T11:19:02;98637.44;;;29.70;37.26
26376;BME280;30544;42.196;24.336;2022-07-10T11:21:45;98634.31;;;30.56;35.18
26376;BME280;30544;42.196;24.336;2022-07-10T11:24:29;98624.13;;;31.06;36.31
26376;BME280;30544;42.196;24.336;2022-07-10T11:27:12;98621.47;;;31.35;34.12
26376;BME280;30544;42.196;24.336;2022-07-10T11:29:43;98624.31;;;30.36;34.12
26376;BME280;30544;42.196;24.336;2022-07-10T11:32:15;98620.00;;;30.08;35.42
26376;BME280;30544;42.196;24.336;2022-07-10T11:34:42;98620.13;;;29.55;35.44
26376;BME280;30544;42.196;24.336;2022-07-10T11:37:14;98606.97;;;29.47;35.59
26376;BME280;30544;42.196;24.336;2022-07-10T11:39:42;98613.66;;;29.92;35.08
26376;BME280;30544;42.196;24.336;2022-07-10T11:42:09;98598.53;;;29.91;35.41
26376;BME280;30544;42.196;24.336;2022-07-10T11:44:36;98612.16;;;29.72;35.81
26376;BME280;30544;42.196;24.336;2022-07-10T11:47:05;98620.69;;;30.39;34.50
26376;BME280;30544;42.196;24.336;2022-07-10T11:49:33;98618.09;;;30.67;32.32
26376;BME280;30544;42.196;24.336;2022-07-10T11:52:02;98618.75;;;30.50;33.49
26376;BME280;30544;42.196;24.336;2022-07-10T11:54:29;98618.28;;;30.41;35.02
26376;BME280;30544;42.196;24.336;2022-07-10T11:56:56;98613.84;;;30.95;34.40
26376;BME280;30544;42.196;24.336;2022-07-10T11:59:24;98589.47;;;31.19;33.89
26376;BME280;30544;42.196;24.336;2022-07-10T12:01:54;98606.88;;;30.96;33.94
26376;BME280;30544;42.196;24.336;2022-07-10T12:04:24;98588.41;;;31.48;34.46
26376;BME280;30544;42.196;24.336;2022-07-10T12:06:53;98596.78;;;31.92;33.50
26376;BME280;30544;42.196;24.336;2022-07-10T12:09:22;98598.94;;;31.26;35.34
26376;BME280;30544;42.196;24.336;2022-07-10T12:11:58;98598.16;;;30.74;34.03
26376;BME280;30544;42.196;24.336;2022-07-10T12:14:25;98600.34;;;30.47;35.37
26376;BME280;30544;42.196;24.336;2022-07-10T12:16:54;98579.94;;;30.49;34.25
26376;BME280;30544;42.196;24.336;2022-07-10T12:19:24;98596.94;;;30.75;35.87
26376;BME280;30544;42.196;24.336;2022-07-10T12:21:53;98597.28;;;30.26;34.87
26376;BME280;30544;42.196;24.336;2022-07-10T12:24:20;98588.72;;;30.26;34.66
26376;BME280;30544;42.196;24.336;2022-07-10T12:26:49;98591.09;;;30.20;34.83
26376;BME280;30544;42.196;24.336;2022-07-10T12:29:22;98596.72;;;30.10;34.35
26376;BME280;30544;42.196;24.336;2022-07-10T12:31:51;98590.63;;;30.11;34.66
26376;BME280;30544;42.196;24.336;2022-07-10T12:34:20;98572.91;;;30.02;34.79
26376;BME280;30544;42.196;24.336;2022-07-10T12:37:06;98573.94;;;30.20;33.96
26376;BME280;30544;42.196;24.336;2022-07-10T12:39:35;98566.75;;;30.37;33.13
26376;BME280;30544;42.196;24.336;2022-07-10T12:42:04;98582.66;;;30.35;34.88
26376;BME280;30544;42.196;24.336;2022-07-10T12:44:36;98584.00;;;30.99;34.24
26376;BME280;30544;42.196;24.336;2022-07-10T12:47:05;98581.16;;;30.99;34.13
26376;BME280;30544;42.196;24.336;2022-07-10T12:49:52;98574.81;;;31.27;34.82
26376;BME280;30544;42.196;24.336;2022-07-10T12:52:25;98570.31;;;30.71;35.37
26376;BME280;30544;42.196;24.336;2022-07-10T12:55:06;98576.75;;;30.58;36.27
26376;BME280;30544;42.196;24.336;2022-07-10T12:57:48;98574.94;;;30.90;36.18
26376;BME280;30544;42.196;24.336;2022-07-10T13:00:17;98578.88;;;30.68;36.42
26376;BME280;30544;42.196;24.336;2022-07-10T13:02:45;98566.88;;;31.06;36.06
26376;BME280;30544;42.196;24.336;2022-07-10T13:05:25;98572.97;;;31.74;35.67
26376;BME280;30544;42.196;24.336;2022-07-10T13:08:04;98574.47;;;31.47;35.35